createdAt,value
2023-04-24T00:01:04.368Z,1.10
2023-04-24T00:03:34.764Z,1.20
2023-04-24T00:08:48.836Z,1.30
2023-04-24T00:11:17.892Z,1.30
2023-04-24T00:13:49.706Z,0.93
2023-04-24T00:16:27.586Z,1.13
2023-04-24T00:18:57.971Z,1.07
2023-04-24T00:21:27.133Z,1.33
2023-04-24T00:23:58.257Z,1.40
2023-04-24T00:26:28.655Z,1.10
2023-04-24T00:28:59.140Z,0.80
2023-04-24T00:31:31.595Z,1.23
2023-04-24T00:34:05.519Z,1.42
2023-04-24T00:36:36.957Z,1.60
2023-04-24T00:39:09.664Z,1.40
2023-04-24T00:41:40.039Z,1.60
2023-04-24T00:44:10.988Z,1.00
2023-04-24T00:46:55.741Z,1.50
2023-04-24T00:49:29.826Z,1.47
2023-04-24T00:52:11.101Z,1.20
2023-04-24T00:54:45.157Z,1.30
2023-04-24T00:57:15.888Z,1.27
2023-04-24T00:59:45.223Z,1.40
2023-04-24T01:02:29.100Z,1.20
2023-04-24T01:05:06.962Z,1.70
2023-04-24T01:07:44.148Z,1.23
2023-04-24T01:10:14.965Z,1.30
2023-04-24T01:12:43.089Z,1.20
2023-04-24T01:15:25.984Z,1.17
2023-04-24T01:17:57.645Z,1.30
2023-04-24T01:20:34.138Z,1.38
2023-04-24T01:23:04.239Z,1.47
2023-04-24T01:25:41.373Z,1.47
2023-04-24T01:28:16.064Z,1.20
2023-04-24T01:30:47.023Z,1.20
2023-04-24T01:33:21.485Z,1.48
2023-04-24T01:38:36.745Z,1.07
2023-04-24T01:41:05.311Z,1.70
2023-04-24T01:43:38.599Z,1.40
2023-04-24T01:46:19.613Z,1.67
2023-04-24T01:49:27.434Z,1.80
2023-04-24T01:51:58.328Z,1.87
2023-04-24T01:54:29.180Z,1.58
2023-04-24T01:57:02.399Z,1.40
2023-04-24T01:59:35.578Z,2.60
2023-04-24T02:02:12.881Z,2.20
2023-04-24T02:04:46.809Z,2.30
2023-04-24T02:07:18.108Z,2.37
2023-04-24T02:09:51.628Z,2.35
2023-04-24T02:12:25.129Z,1.63
2023-04-24T02:14:58.957Z,1.80
2023-04-24T02:17:32.202Z,1.20
2023-04-24T02:20:19.103Z,1.60
2023-04-24T02:22:49.869Z,1.50
2023-04-24T02:25:32.665Z,1.07
2023-04-24T02:28:06.376Z,1.20
2023-04-24T02:30:37.445Z,0.83
2023-04-24T02:33:09.342Z,1.27
2023-04-24T02:35:41.135Z,1.13
2023-04-24T02:38:11.062Z,0.98
2023-04-24T02:40:42.326Z,1.30
2023-04-24T02:45:59.919Z,1.47
2023-04-24T02:48:31.601Z,1.30
2023-04-24T02:51:05.779Z,1.23
2023-04-24T02:53:40.171Z,1.30
2023-04-24T02:58:58.828Z,1.47
2023-04-24T03:01:31.929Z,1.33
2023-04-24T03:06:56.427Z,1.30
2023-04-24T03:09:28.663Z,1.90
2023-04-24T03:12:04.850Z,1.50
2023-04-24T03:14:46.089Z,1.60
2023-04-24T03:17:20.519Z,0.90
2023-04-24T03:19:55.056Z,1.33
2023-04-24T03:22:25.966Z,1.33
2023-04-24T03:27:43.853Z,4.83
2023-04-24T03:30:34.036Z,6.40
2023-04-24T03:33:14.661Z,2.77
2023-04-24T03:35:56.598Z,3.73
2023-04-24T03:38:24.913Z,3.07
2023-04-24T03:41:32.695Z,3.85
2023-04-24T03:44:21.734Z,3.60
2023-04-24T03:46:56.212Z,1.88
2023-04-24T03:49:29.232Z,2.23
2023-04-24T03:52:00.362Z,1.52
2023-04-24T03:54:38.895Z,1.70
2023-04-24T03:57:10.580Z,2.10
2023-04-24T03:59:47.013Z,1.80
2023-04-24T04:02:41.541Z,1.23
2023-04-24T04:05:19.834Z,1.70
2023-04-24T04:07:56.723Z,1.60
2023-04-24T04:10:30.232Z,1.63
2023-04-24T04:13:06.864Z,1.60
2023-04-24T04:15:46.004Z,1.70
2023-04-24T04:18:16.471Z,1.40
2023-04-24T04:20:54.968Z,1.77
2023-04-24T04:23:26.270Z,1.40
2023-04-24T04:26:07.074Z,1.50
2023-04-24T04:31:32.355Z,1.40
2023-04-24T04:34:08.319Z,1.27
2023-04-24T04:36:40.211Z,1.73
2023-04-24T04:39:36.137Z,1.80
2023-04-24T04:42:18.666Z,1.95
2023-04-24T04:44:56.335Z,1.23
2023-04-24T04:47:38.962Z,1.47
2023-04-24T04:50:14.530Z,1.50
2023-04-24T04:52:52.629Z,1.40
2023-04-24T04:55:39.729Z,1.47
2023-04-24T05:01:04.284Z,1.37
2023-04-24T05:03:44.137Z,2.73
2023-04-24T05:06:16.457Z,4.47
2023-04-24T05:08:52.087Z,3.30
2023-04-24T05:11:33.359Z,2.60
2023-04-24T05:14:29.058Z,2.50
2023-04-24T05:16:59.999Z,2.63
2023-04-24T05:19:36.694Z,2.83
2023-04-24T05:22:08.891Z,2.70
2023-04-24T05:24:54.262Z,2.30
2023-04-24T05:27:50.371Z,2.60
2023-04-24T05:30:26.987Z,2.17
2023-04-24T05:33:02.225Z,2.37
2023-04-24T05:35:42.800Z,2.50
2023-04-24T05:38:14.610Z,2.30
2023-04-24T05:43:38.139Z,2.63
2023-04-24T05:49:03.708Z,2.73
2023-04-24T05:51:35.087Z,2.10
2023-04-24T05:54:15.654Z,2.70
2023-04-24T05:56:46.269Z,2.20
2023-04-24T05:59:27.646Z,2.17
2023-04-24T06:02:03.722Z,1.90
2023-04-24T06:04:49.136Z,2.30
2023-04-24T06:07:23.474Z,2.40
2023-04-24T06:09:55.024Z,1.77
2023-04-24T06:12:26.148Z,2.73
2023-04-24T06:15:15.886Z,2.50
2023-04-24T06:17:55.774Z,2.63
2023-04-24T06:20:35.633Z,3.03
2023-04-24T06:23:08.073Z,2.95
2023-04-24T06:25:41.753Z,3.60
2023-04-24T06:28:29.236Z,4.10
2023-04-24T06:31:01.931Z,2.63
2023-04-24T06:33:46.153Z,3.00
2023-04-24T06:36:19.558Z,2.93
2023-04-24T06:38:54.434Z,2.67
2023-04-24T06:41:33.312Z,2.20
2023-04-24T06:44:01.500Z,3.37
2023-04-24T06:46:34.013Z,3.23
2023-04-24T06:49:04.031Z,3.30
2023-04-24T06:51:41.292Z,4.60
2023-04-24T06:54:10.539Z,3.87
2023-04-24T06:56:42.601Z,4.13
2023-04-24T07:02:00.000Z,4.63
2023-04-24T07:04:31.911Z,3.35
2023-04-24T07:07:06.437Z,4.57
2023-04-24T07:09:42.684Z,3.10
2023-04-24T07:12:13.309Z,3.40
2023-04-24T07:17:32.651Z,3.23
2023-04-24T07:20:04.065Z,3.63
2023-04-24T07:22:37.410Z,3.45
2023-04-24T07:28:11.703Z,3.07
2023-04-24T07:30:42.246Z,2.90
2023-04-24T07:33:14.214Z,3.13
2023-04-24T07:35:47.209Z,2.67
2023-04-24T07:38:29.289Z,2.90
2023-04-24T07:41:09.569Z,2.70
2023-04-24T07:43:39.951Z,3.37
2023-04-24T07:46:10.177Z,2.77
2023-04-24T07:48:44.822Z,3.40
2023-04-24T07:51:16.392Z,4.13
2023-04-24T07:53:48.094Z,3.67
2023-04-24T07:56:34.151Z,3.53
2023-04-24T07:59:05.602Z,3.27
2023-04-24T08:01:47.297Z,3.03
2023-04-24T08:04:22.194Z,3.20
2023-04-24T08:06:53.502Z,2.73
2023-04-24T08:09:25.333Z,2.78
2023-04-24T08:12:02.359Z,2.70
2023-04-24T08:14:31.780Z,2.97
2023-04-24T08:17:08.642Z,3.10
2023-04-24T08:19:41.249Z,3.00
2023-04-24T08:25:01.715Z,4.40
2023-04-24T08:27:35.069Z,3.07
2023-04-24T08:30:21.922Z,1.90
2023-04-24T08:32:52.536Z,2.07
2023-04-24T08:35:27.116Z,2.13
2023-04-24T08:38:03.441Z,3.70
2023-04-24T08:40:40.607Z,2.40
2023-04-24T08:43:12.334Z,2.00
2023-04-24T08:48:36.366Z,1.93
2023-04-24T08:51:10.902Z,1.67
2023-04-24T08:53:52.551Z,1.63
2023-04-24T08:56:36.304Z,2.00
2023-04-24T09:05:58.162Z,1.80
2023-04-24T09:08:32.687Z,2.20
2023-04-24T09:11:05.032Z,1.50
2023-04-24T09:13:45.875Z,2.10
2023-04-24T09:16:16.785Z,1.60
2023-04-24T09:18:52.176Z,1.53
2023-04-24T09:21:26.438Z,1.33
2023-04-24T09:24:08.098Z,2.07
2023-04-24T09:26:42.166Z,2.43
2023-04-24T09:29:13.275Z,1.63
2023-04-24T09:31:46.420Z,1.77
2023-04-24T09:34:16.894Z,2.00
2023-04-24T09:36:47.048Z,2.13
2023-04-24T09:39:18.815Z,1.67
2023-04-24T09:41:53.859Z,1.77
2023-04-24T09:44:44.471Z,1.63
2023-04-24T09:47:22.227Z,2.23
2023-04-24T09:49:53.866Z,1.70
2023-04-24T09:52:26.703Z,1.58
2023-04-24T09:55:13.789Z,2.20
2023-04-24T09:58:08.921Z,2.03
2023-04-24T10:00:43.518Z,2.20
2023-04-24T10:03:34.332Z,1.67
2023-04-24T10:06:12.171Z,2.00
2023-04-24T10:08:58.585Z,2.20
2023-04-24T10:11:34.508Z,2.20
2023-04-24T10:14:05.639Z,1.70
2023-04-24T10:16:38.772Z,1.80
2023-04-24T10:19:08.479Z,1.90
2023-04-24T10:24:23.729Z,2.13
2023-04-24T10:27:07.758Z,2.43
2023-04-24T10:29:49.644Z,1.60
2023-04-24T10:34:51.983Z,3.00
2023-04-24T10:37:26.789Z,2.03
2023-04-24T10:40:07.899Z,2.07
2023-04-24T10:42:40.025Z,2.63
2023-04-24T10:45:20.947Z,2.43
2023-04-24T10:48:05.639Z,1.83
2023-04-24T10:50:59.019Z,2.07
2023-04-24T10:53:32.053Z,2.53
2023-04-24T10:56:15.922Z,1.93
2023-04-24T10:58:50.567Z,1.93
2023-04-24T11:01:43.218Z,1.90
2023-04-24T11:04:29.630Z,1.77
2023-04-24T11:07:10.267Z,1.93
2023-04-24T11:09:44.709Z,1.67
2023-04-24T11:12:24.489Z,2.67
2023-04-24T11:15:01.017Z,1.80
2023-04-24T11:17:44.964Z,2.60
2023-04-24T11:23:20.989Z,1.80
2023-04-24T11:26:35.476Z,2.53
2023-04-24T11:29:22.316Z,1.67
2023-04-24T11:31:54.281Z,1.93
2023-04-24T11:34:28.290Z,2.63
2023-04-24T11:37:04.227Z,2.10
2023-04-24T11:39:40.171Z,2.00
2023-04-24T11:42:11.770Z,1.90
2023-04-24T11:45:00.817Z,2.93
2023-04-24T11:47:31.506Z,2.13
2023-04-24T11:50:01.668Z,3.10
2023-04-24T11:52:37.062Z,2.23
2023-04-24T11:55:15.763Z,2.70
2023-04-24T11:58:01.220Z,2.33
2023-04-24T12:00:35.618Z,3.00
2023-04-24T12:03:33.068Z,2.80
2023-04-24T12:06:11.839Z,2.20
2023-04-24T12:08:42.023Z,1.73
2023-04-24T12:11:16.144Z,1.60
2023-04-24T12:13:48.105Z,1.80
2023-04-24T12:16:18.378Z,1.90
2023-04-24T12:19:04.558Z,1.57
2023-04-24T12:21:38.566Z,1.63
2023-04-24T12:24:13.429Z,1.83
2023-04-24T12:26:45.603Z,1.67
2023-04-24T12:29:34.490Z,1.90
2023-04-24T12:32:06.760Z,1.73
2023-04-24T12:34:34.780Z,1.70
2023-04-24T12:40:18.687Z,1.50
2023-04-24T12:42:58.034Z,1.40
2023-04-24T12:45:32.709Z,1.60
2023-04-24T12:48:16.031Z,1.70
2023-04-24T12:50:53.597Z,1.93
2023-04-24T12:53:31.084Z,2.50
2023-04-24T12:56:01.631Z,2.23
2023-04-24T13:01:18.895Z,1.60
2023-04-24T13:04:05.825Z,1.70
2023-04-24T13:06:46.584Z,1.37
2023-04-24T13:09:20.816Z,1.63
2023-04-24T13:11:50.443Z,1.37
2023-04-24T13:14:19.011Z,1.50
2023-04-24T13:16:50.085Z,1.67
2023-04-24T13:19:20.641Z,1.80
2023-04-24T13:22:04.172Z,1.87
2023-04-24T13:24:39.738Z,2.23
2023-04-24T13:27:16.862Z,2.03
2023-04-24T13:29:49.317Z,2.33
2023-04-24T13:32:20.937Z,2.03
2023-04-24T13:40:03.297Z,2.77
2023-04-24T13:45:24.657Z,2.07
2023-04-24T13:48:12.694Z,2.07
2023-04-24T13:50:44.704Z,1.83
2023-04-24T13:53:16.662Z,1.90
2023-04-24T13:55:52.362Z,2.07
2023-04-24T13:58:22.368Z,2.10
2023-04-24T14:00:54.044Z,2.37
2023-04-24T14:06:10.503Z,1.57
2023-04-24T14:08:45.826Z,1.43
2023-04-24T14:11:16.612Z,1.77
2023-04-24T14:13:49.789Z,1.13
2023-04-24T14:16:19.230Z,0.80
2023-04-24T14:18:54.914Z,0.63
2023-04-24T14:21:32.036Z,0.90
2023-04-24T14:24:02.731Z,0.60
2023-04-24T14:29:20.804Z,0.70
2023-04-24T14:31:55.087Z,0.57
2023-04-24T14:34:34.004Z,0.77
2023-04-24T14:40:15.375Z,1.57
2023-04-24T14:42:54.824Z,1.00
2023-04-24T14:45:27.526Z,1.20
2023-04-24T14:48:01.327Z,0.60
2023-04-24T14:50:32.415Z,1.20
2023-04-24T14:53:04.168Z,0.65
2023-04-24T14:55:40.244Z,0.70
2023-04-24T14:58:15.465Z,1.77
2023-04-24T15:00:53.169Z,1.33
2023-04-24T15:03:28.376Z,1.20
2023-04-24T15:06:07.902Z,1.60
2023-04-24T15:08:40.680Z,0.90
2023-04-24T15:11:09.213Z,1.20
2023-04-24T15:13:40.421Z,1.20
2023-04-24T15:16:11.685Z,1.77
2023-04-24T15:18:42.378Z,1.40
2023-04-24T15:21:26.636Z,1.20
2023-04-24T15:24:00.457Z,1.03
2023-04-24T15:26:48.007Z,0.70
2023-04-24T15:29:24.751Z,1.10
2023-04-24T15:32:05.137Z,1.03
2023-04-24T15:34:36.024Z,1.10
2023-04-24T15:37:06.802Z,0.82
2023-04-24T15:39:38.612Z,1.07
2023-04-24T15:42:18.964Z,1.00
2023-04-24T15:44:49.500Z,1.00
2023-04-24T15:50:15.176Z,0.60
2023-04-24T15:52:59.227Z,1.37
2023-04-24T15:55:41.098Z,0.70
2023-04-24T15:58:15.009Z,0.70
2023-04-24T16:00:53.049Z,0.90
2023-04-24T16:03:26.623Z,0.60
2023-04-24T16:05:57.613Z,0.60
2023-04-24T16:08:28.517Z,0.70
2023-04-24T16:11:03.586Z,1.25
2023-04-24T16:13:35.229Z,2.37
2023-04-24T16:16:09.105Z,7.05
2023-04-24T16:18:42.670Z,3.50
2023-04-24T16:21:19.526Z,9.43
2023-04-24T16:23:55.456Z,3.43
2023-04-24T16:26:39.456Z,2.43
2023-04-24T16:29:09.677Z,2.03
2023-04-24T16:31:40.007Z,1.13
2023-04-24T16:34:08.930Z,2.80
2023-04-24T16:36:38.904Z,2.40
2023-04-24T16:39:13.943Z,1.60
2023-04-24T16:41:44.419Z,1.00
2023-04-24T16:44:21.258Z,1.40
2023-04-24T16:46:51.850Z,1.13
2023-04-24T16:52:08.173Z,1.02
2023-04-24T16:54:39.929Z,0.60
2023-04-24T16:59:46.748Z,1.17
2023-04-24T17:02:15.752Z,0.80
2023-04-24T17:04:51.799Z,0.90
2023-04-24T17:07:37.311Z,1.10
2023-04-24T17:10:11.942Z,1.17
2023-04-24T17:12:48.741Z,1.57
2023-04-24T17:15:32.758Z,2.43
2023-04-24T17:18:02.551Z,1.40
2023-04-24T17:20:33.626Z,1.63
2023-04-24T17:23:12.363Z,2.03
2023-04-24T17:25:42.603Z,1.83
2023-04-24T17:28:32.799Z,2.13
2023-04-24T17:33:47.212Z,1.10
2023-04-24T17:36:25.747Z,1.70
2023-04-24T17:39:00.404Z,1.53
2023-04-24T17:41:43.329Z,1.13
2023-04-24T17:44:16.603Z,1.60
2023-04-24T17:46:49.560Z,1.70
2023-04-24T17:49:18.891Z,2.27
2023-04-24T17:51:49.151Z,1.13
2023-04-24T17:54:20.376Z,1.20
2023-04-24T17:56:56.988Z,1.20
2023-04-24T17:59:30.208Z,1.27
2023-04-24T18:02:02.804Z,2.27
2023-04-24T18:04:43.563Z,1.60
2023-04-24T18:07:18.792Z,1.67
2023-04-24T18:09:51.243Z,1.30
2023-04-24T18:12:20.208Z,1.50
2023-04-24T18:15:13.017Z,0.87
2023-04-24T18:17:43.280Z,1.00
2023-04-24T18:20:28.080Z,1.30
2023-04-24T18:23:03.400Z,1.50
2023-04-24T18:25:48.696Z,1.33
2023-04-24T18:28:16.907Z,1.20
2023-04-24T18:30:50.578Z,1.90
2023-04-24T18:33:32.697Z,0.87
2023-04-24T18:36:15.653Z,1.13
2023-04-24T18:38:46.443Z,1.10
2023-04-24T18:41:21.747Z,0.90
2023-04-24T18:43:52.439Z,1.87
2023-04-24T18:46:22.767Z,1.40
2023-04-24T18:48:57.845Z,1.43
2023-04-24T18:51:26.880Z,1.53
2023-04-24T18:53:57.069Z,1.10
2023-04-24T18:56:27.921Z,1.13
2023-04-24T18:58:58.729Z,1.20
2023-04-24T19:01:29.706Z,1.00
2023-04-24T19:04:00.703Z,1.17
2023-04-24T19:06:32.297Z,1.50
2023-04-24T19:09:12.539Z,1.13
2023-04-24T19:11:47.629Z,2.10
2023-04-24T19:14:19.564Z,1.27
2023-04-24T19:16:50.925Z,1.00
2023-04-24T19:19:18.939Z,1.30
2023-04-24T19:21:50.628Z,1.03
2023-04-24T19:24:23.870Z,0.80
2023-04-24T19:29:26.933Z,0.70
2023-04-24T19:32:02.321Z,0.80
2023-04-24T19:34:38.369Z,1.10
2023-04-24T19:39:53.317Z,0.80
2023-04-24T19:42:42.006Z,1.17
2023-04-24T19:45:15.739Z,0.70
2023-04-24T19:47:49.744Z,1.03
2023-04-24T19:50:23.993Z,0.93
2023-04-24T19:52:52.167Z,0.57
2023-04-24T19:55:20.298Z,1.00
2023-04-24T19:57:54.823Z,0.70
2023-04-24T20:00:27.661Z,0.57
2023-04-24T20:03:04.700Z,0.83
2023-04-24T20:05:44.816Z,0.60
2023-04-24T20:08:20.142Z,1.10
2023-04-24T20:10:52.848Z,0.63
2023-04-24T20:13:29.888Z,0.70
2023-04-24T20:16:00.689Z,0.67
2023-04-24T20:18:34.731Z,0.77
2023-04-24T20:21:12.492Z,0.77
2023-04-24T20:23:46.983Z,0.90
2023-04-24T20:29:01.214Z,0.70
2023-04-24T20:31:29.368Z,0.70
2023-04-24T20:34:00.678Z,0.83
2023-04-24T20:36:34.040Z,1.03
2023-04-24T20:39:13.321Z,0.50
2023-04-24T20:41:45.180Z,0.70
2023-04-24T20:44:16.455Z,0.60
2023-04-24T20:46:49.784Z,0.45
2023-04-24T20:49:21.265Z,1.60
2023-04-24T20:51:50.149Z,1.58
2023-04-24T20:54:23.865Z,1.20
2023-04-24T20:56:54.388Z,1.43
2023-04-24T20:59:28.095Z,1.17
2023-04-24T21:01:55.804Z,1.10
2023-04-24T21:04:39.932Z,1.00
2023-04-24T21:07:18.385Z,0.90
2023-04-24T21:09:53.020Z,0.60
2023-04-24T21:12:21.147Z,0.90
2023-04-24T21:15:03.869Z,1.20
2023-04-24T21:17:33.978Z,1.00
2023-04-24T21:20:18.732Z,1.13
2023-04-24T21:22:49.595Z,0.70
2023-04-24T21:25:20.482Z,0.50
2023-04-24T21:27:49.072Z,1.10
2023-04-24T21:30:24.471Z,0.60
2023-04-24T21:33:06.519Z,0.83
2023-04-24T21:35:43.734Z,1.00
2023-04-24T21:38:22.344Z,1.07
2023-04-24T21:40:56.041Z,1.43
2023-04-24T21:43:49.810Z,1.00
2023-04-24T21:46:20.732Z,0.90
2023-04-24T21:49:04.141Z,0.50
2023-04-24T21:51:34.578Z,1.10
2023-04-24T21:54:17.322Z,0.73
2023-04-24T21:56:48.688Z,0.60
2023-04-24T22:04:29.050Z,0.87
2023-04-24T22:07:01.882Z,0.70
2023-04-24T22:12:26.480Z,0.90
2023-04-24T22:14:58.870Z,0.73
2023-04-24T22:17:32.528Z,0.70
2023-04-24T22:20:01.735Z,0.83
2023-04-24T22:22:40.067Z,1.07
2023-04-24T22:25:11.232Z,0.90
2023-04-24T22:27:42.967Z,0.95
2023-04-24T22:30:26.257Z,0.90
2023-04-24T22:33:00.249Z,0.67
2023-04-24T22:35:43.445Z,0.73
2023-04-24T22:38:25.686Z,0.80
2023-04-24T22:40:54.839Z,1.00
2023-04-24T22:43:25.265Z,1.20
2023-04-24T22:46:00.798Z,1.03
2023-04-24T22:48:47.140Z,1.10
2023-04-24T22:51:19.514Z,0.73
2023-04-24T22:53:51.528Z,0.90
2023-04-24T22:56:20.807Z,0.93
2023-04-24T22:58:57.753Z,0.83
2023-04-24T23:01:29.325Z,0.63
2023-04-24T23:06:58.345Z,0.43
2023-04-24T23:09:28.738Z,0.43
2023-04-24T23:12:05.207Z,1.20
2023-04-24T23:14:42.459Z,0.50
2023-04-24T23:17:13.688Z,1.00
2023-04-24T23:19:41.613Z,1.00
2023-04-24T23:22:10.863Z,0.70
2023-04-24T23:24:49.865Z,0.80
2023-04-24T23:27:20.717Z,1.63
2023-04-24T23:29:53.282Z,1.23
2023-04-24T23:32:23.914Z,1.50
2023-04-24T23:34:56.525Z,1.10
2023-04-24T23:37:39.660Z,1.03
2023-04-24T23:40:18.406Z,1.40
2023-04-24T23:43:05.544Z,1.33
2023-04-24T23:45:37.965Z,1.00
2023-04-24T23:48:12.074Z,1.30
2023-04-24T23:50:42.455Z,1.30
2023-04-24T23:56:05.937Z,1.73
2023-04-24T23:58:37.752Z,1.33
